Crashed F100 oscillated sharply before losing height: Bek Air

Status: Preliminary
Date: Friday 27 December 2019
Time: 07:22
Type: Silhouette image of generic F100 model; specific model in this crash may look slightly different
Fokker 100
Operator: Bek Air
Registration: UP-F1007
C/n / msn: 11496
First flight: 1996-04-09 (23 years 9 months)
Engines: 2 Rolls-Royce Tay 650-15
Crew: Fatalities: 1 / Occupants: 5
Passengers: Fatalities: 11 / Occupants: 96
Total: Fatalities: 12 / Occupants: 101
Aircraft damage: Destroyed
Aircraft fate: Written off (damaged beyond repair)
Location: near Almaty Airport (ALA) (   Kazakhstan)
Phase: Takeoff (TOF)
Nature: Domestic Scheduled Passenger
Departure airport: Almaty Airport (ALA/UAAA), Kazakhstan
Destination airport: Nursultan Nazarbayev International Airport (TSE/UACC), Kazakhstan
Flightnumber: Z92100

Narrative:
Bek Air flight 2100, a Fokker 100, crashed into a building during takeoff from Almaty Airport, Kazakhstan.
The aircraft took off from runway 05R and lost height shortly after becoming airborne. It veered right and hit a perimeter fence before impacting a two-storey house in a residential area near the runway. The aircraft broke up. There was no fire.
The aircraft came to rest about 680 m past the paved end of runway 05R and about 100 meters to the right of the extended centreline. A survivor reported that the aircraft “started shaking violently” on takeoff, rolling left and right before it lost height and impacted the house.
The Vice-Minister of Health reported that 12 occupants had died and 47 were injured, of which 8 in extremely serious condition.

METAR Weather report:

01:00 UTC / 07:00 local time:
UAAA 270100Z 14001MPS 1000 R05L/P2000N R05R/P2000D BR FU NSC M12/M13 Q1014 R88/91//50 NOSIG

01:30 UTC / 07:30 local time:
UAAA 270130Z 10002MPS 1000 R05L/P2000 R05R/P2000U BR FU NSC M12/M13 Q1014 R88/91//50 NOSIG
Temperature -12°C, Dew point -13°C; Winds 100 degrees at 4 knots; Visibility 1 km; sky clear below 12,000 feet; smoke, mist